ADDS METAR Data INFO
IDs: Format: Raw Decoded Include TAF

Data at: 1559 UTC 12 Dec 2017

KCNC 121555Z AUTO 31010KT 10SM CLR M07/M12 A3028 RMK AO2
KCNC 121535Z AUTO 32011KT 10SM CLR M07/M12 A3027 RMK AO2
KCNC 121515Z AUTO 32011KT 10SM CLR M08/M12 A3027 RMK AO2
KCNC 121455Z AUTO 30011KT 10SM CLR M08/M12 A3027 RMK AO2
KCNC 121435Z AUTO 30010KT 10SM CLR M09/M12 A3028 RMK AO2
KCNC 121415Z AUTO 29008KT 10SM CLR M10/M13 A3028 RMK AO2
KCNC 121355Z AUTO 27005KT 10SM CLR M10/M13 A3027 RMK AO2
KCNC 121335Z AUTO 29006KT 10SM CLR M10/M13 A3027 RMK AO2
KCNC 121315Z AUTO 32005KT 10SM CLR M10/M13 A3027 RMK AO2
KCNC 121255Z AUTO 31007KT 10SM CLR M10/M13 A3027 RMK AO2
KCNC 121235Z AUTO 31008KT 10SM CLR M10/M13 A3026 RMK AO2
KCNC 121215Z AUTO 31009KT 10SM CLR M09/M13 A3026 RMK AO2
KCNC 121155Z AUTO 30009KT 10SM CLR M09/M13 A3027 RMK AO2
KCNC 121135Z AUTO 30009G14KT 10SM CLR M09/M13 A3027 RMK AO2
KCNC 121115Z AUTO 30008KT 10SM CLR M09/M12 A3027 RMK AO2
KCNC 121055Z AUTO 30010KT 10SM CLR M09/M12 A3026 RMK AO2
KCNC 121035Z AUTO 31008KT 10SM CLR M09/M12 A3026 RMK AO2
KCNC 121015Z AUTO 31009KT 10SM CLR M09/M11 A3026 RMK AO2
KCNC 120955Z AUTO 32011KT 10SM CLR M09/M11 A3025 RMK AO2
KCNC 120935Z AUTO 32011KT 10SM CLR M08/M11 A3025 RMK AO2
KCNC 120915Z AUTO 32011KT 10SM CLR M08/M11 A3025 RMK AO2
KCNC 120855Z AUTO 31010G16KT 10SM CLR M08/M10 A3025 RMK AO2
KCNC 120835Z AUTO 32011KT 10SM CLR M08/M10 A3025 RMK AO2
KCNC 120815Z AUTO 32011KT 10SM CLR M08/M10 A3025 RMK AO2
KCNC 120755Z AUTO 32012KT 10SM CLR M07/M10 A3025 RMK AO2
KCNC 120735Z AUTO 31010G18KT 10SM SCT019 M07/M10 A3025 RMK AO2
KCNC 120715Z AUTO 32012KT 10SM BKN019 M06/M09 A3024 RMK AO2
KCNC 120655Z AUTO 35011G19KT 10SM OVC020 M06/M09 A3023 RMK AO2
KCNC 120635Z AUTO 35012KT 10SM OVC021 M05/M09 A3023 RMK AO2
KCNC 120615Z AUTO 35011KT 10SM OVC022 M05/M09 A3022 RMK AO2
KCNC 120555Z AUTO 35013KT 10SM OVC022 M05/M09 A3021 RMK AO2
KCNC 120535Z AUTO 35014KT 10SM OVC022 M04/M09 A3021 RMK AO2
KCNC 120515Z AUTO 33015G20KT 10SM OVC023 M04/M08 A3021 RMK AO2
KCNC 120455Z AUTO 32016KT 10SM OVC023 M03/M08 A3020 RMK AO2
KCNC 120435Z AUTO 32016KT 10SM -UP OVC023 M03/M07 A3019 RMK AO2
KCNC 120415Z AUTO 32017G23KT 10SM OVC024 M02/M07 A3017 RMK AO2
KCNC 120355Z AUTO 32019G26KT 10SM OVC024 M02/M07 A3017 RMK AO2
KCNC 120335Z AUTO 34023KT 10SM -UP OVC024 M02/M07 A3016 RMK AO2
KCNC 120315Z AUTO 22.16666722G30KT 10SM OVC024 M01/M06 A3016 RMK AO2
KCNC 120255Z AUTO 33021G30KT 10SM OVC021 M00/M05 A3014 RMK AO2
KCNC 120235Z AUTO 32022G31KT 10SM OVC019 00/M04 A3012 RMK AO2
KCNC 120215Z AUTO 32023G31KT 10SM -UP OVC019 01/M03 A3011 RMK AO2
KCNC 120155Z AUTO 33020G29KT 10SM -UP OVC019 01/M03 A3009 RMK AO2
KCNC 120135Z AUTO 32022G29KT 10SM -UP OVC019 01/M02 A3008 RMK AO2
KCNC 120115Z AUTO 32017G23KT 10SM OVC016 01/M01 A3007 RMK AO2
KCNC 120055Z AUTO 32018G26KT 10SM OVC015 01/M01 A3006 RMK AO2
KCNC 120035Z AUTO 32026G35KT 10SM -UP OVC016 02/M01 A3004 RMK AO2
KCNC 120015Z AUTO 33020G26KT 10SM -UP OVC015 02/M01 A3003 RMK AO2
KCNC 112355Z AUTO 31024KT 10SM -UP OVC019 03/M01 A3002 RMK AO2
KCNC 112335Z AUTO 31021G29KT 10SM OVC019 04/M00 A3000 RMK AO2
KCNC 112315Z AUTO 32020KT 10SM -UP OVC018 04/00 A2999 RMK AO2
KCNC 112255Z AUTO 33021G31KT 10SM OVC019 04/00 A2997 RMK AO2
KCNC 112235Z AUTO 33021G28KT 10SM -UP OVC019 04/00 A2996 RMK AO2
KCNC 112215Z AUTO 31019G29KT 10SM OVC020 05/01 A2995 RMK AO2
KCNC 112155Z AUTO 32021G30KT 10SM OVC022 05/00 A2993 RMK AO2
KCNC 112135Z AUTO 33021G27KT 10SM OVC022 05/00 A2991 RMK AO2
KCNC 112115Z AUTO 32029G39KT 10SM OVC022 05/00 A2990 RMK AO2
KCNC 112055Z AUTO 32026G33KT 10SM OVC025 06/00 A2989 RMK AO2
KCNC 112035Z AUTO 32025G33KT 10SM -UP OVC025 06/00 A2987 RMK AO2
KCNC 112015Z AUTO 32020G30KT 10SM OVC026 06/00 A2986 RMK AO2
KCNC 111955Z AUTO 32025G30KT 10SM -UP OVC027 06/00 A2985 RMK AO2
KCNC 111935Z AUTO 30021G36KT 10SM -UP OVC030 07/00 A2984 RMK AO2
KCNC 111915Z AUTO 30020G36KT 10SM OVC033 07/M00 A2983 RMK AO2
KCNC 111855Z AUTO 32022G36KT 10SM OVC036 07/M01 A2982 RMK AO2
KCNC 111835Z AUTO 32027G34KT 10SM OVC037 08/M01 A2981 RMK AO2
KCNC 111815Z AUTO 31024G34KT 10SM OVC037 07/M01 A2982 RMK AO2
KCNC 111755Z AUTO 32022G33KT 10SM OVC037 07/M01 A2981 RMK AO2
KCNC 111735Z AUTO 31019G28KT 10SM BKN037 OVC049 08/M01 A2981 RMK AO2
KCNC 111715Z AUTO 31026G32KT 10SM BKN037 BKN043 OVC048 07/M01 A2981 RMK AO2
KCNC 111655Z AUTO 32023G31KT 10SM BKN042 08/M01 A2981 RMK AO2
KCNC 111635Z AUTO 31026G38KT 10SM FEW044 08/M02 A2981 RMK AO2
KCNC 111615Z AUTO 31025G33KT 10SM CLR 08/M03 A2980 RMK AO2
KCNC 111555Z AUTO 30021G29KT 10SM CLR 07/M05 A2980 RMK AO2
KCNC 111535Z AUTO 30019G27KT 10SM -UP CLR 07/M05 A2978 RMK AO2
KCNC 111515Z AUTO 30021G29KT 10SM CLR 06/M06 A2978 RMK AO2
KCNC 111455Z AUTO 29017G23KT 10SM CLR 04/M06 A2977 RMK AO2
KCNC 111435Z AUTO 28013KT 10SM CLR 03/M06 A2978 RMK AO2
KCNC 111415Z AUTO 28010G16KT CLR 02/M06 A2978 RMK AO2
KCNC 111355Z AUTO 27011KT 10SM CLR 03/M05 A2979 RMK AO2
KCNC 111335Z AUTO 25010KT 10SM CLR 03/M05 A2979 RMK AO2
KCNC 111315Z AUTO 25007KT 10SM CLR 02/M05 A2979 RMK AO2
KCNC 111255Z AUTO 24010KT 10SM CLR 02/M05 A2980 RMK AO2
KCNC 111235Z AUTO 23010KT 10SM CLR 02/M04 A2982 RMK AO2
KCNC 111215Z AUTO 22008KT 10SM CLR 02/M04 A2983 RMK AO2
KCNC 111155Z AUTO 22007KT 10SM CLR 03/M04 A2984 RMK AO2
KCNC 111135Z AUTO 23005KT 10SM CLR 03/M04 A2985 RMK AO2
KCNC 111115Z AUTO 22006KT 10SM CLR 02/M04 A2986 RMK AO2
KCNC 111055Z AUTO 21008KT 10SM CLR 02/M04 A2987 RMK AO2
KCNC 111035Z AUTO 21006KT 10SM CLR 01/M04 A2989 RMK AO2
KCNC 111015Z AUTO 22006KT 10SM CLR 02/M04 A2991 RMK AO2
KCNC 110955Z AUTO 21006KT 10SM CLR 00/M04 A2992 RMK AO2
KCNC 110935Z AUTO 22006KT 10SM CLR 02/M04 A2994 RMK AO2
KCNC 110915Z AUTO 22007KT 10SM CLR 02/M04 A2995 RMK AO2
KCNC 110855Z AUTO 22007KT 10SM CLR 02/M04 A2996 RMK AO2
KCNC 110835Z AUTO 22008KT 10SM CLR 01/M04 A2996 RMK AO2
KCNC 110815Z AUTO 22006KT 10SM CLR 01/M04 A2998 RMK AO2
KCNC 110755Z AUTO 21005KT 10SM CLR M01/M04 A2998 RMK AO2
KCNC 110735Z AUTO 21005KT 10SM CLR M00/M04 A2999 RMK AO2
KCNC 110715Z AUTO 21005KT 10SM CLR 00/M04 A3000 RMK AO2
KCNC 110655Z AUTO 22004KT 10SM CLR 00/M04 A3001 RMK AO2
KCNC 110635Z AUTO 21006KT 10SM CLR 00/M04 A3002 RMK AO2
KCNC 110615Z AUTO 21006KT 10SM CLR 01/M04 A3003 RMK AO2
KCNC 110555Z AUTO 20005KT 10SM CLR 01/M04 A3003 RMK AO2
KCNC 110535Z AUTO 22005KT 10SM CLR 01/M04 A3004 RMK AO2
KCNC 110515Z AUTO 21006KT 10SM CLR 01/M04 A3005 RMK AO2
KCNC 110455Z AUTO 18005KT 10SM CLR 00/M04 A3005 RMK AO2
KCNC 110435Z AUTO 23004KT 10SM FEW120 01/M04 A3006 RMK AO2
KCNC 110415Z AUTO 00000KT 10SM CLR 00/M04 A3006 RMK AO2